sensor_id;sensor_type;location;lat;lon;timestamp;pressure;altitude;pressure_sealevel;temperature;humidity
44441;BME280;30146;52.268;20.944;2023-08-12T00:01:13;100969.63;;;15.07;53.81
44441;BME280;30146;52.268;20.944;2023-08-12T00:03:42;100969.89;;;15.03;54.03
44441;BME280;30146;52.268;20.944;2023-08-12T00:06:12;100969.77;;;15.00;54.26
44441;BME280;30146;52.268;20.944;2023-08-12T00:08:41;100967.58;;;14.97;54.24
44441;BME280;30146;52.268;20.944;2023-08-12T00:11:10;100972.11;;;14.94;54.45
44441;BME280;30146;52.268;20.944;2023-08-12T00:13:40;100969.92;;;14.91;54.50
44441;BME280;30146;52.268;20.944;2023-08-12T00:16:09;100975.12;;;14.89;54.60
44441;BME280;30146;52.268;20.944;2023-08-12T00:18:39;100974.48;;;14.86;54.63
44441;BME280;30146;52.268;20.944;2023-08-12T00:21:09;100975.90;;;14.83;54.61
44441;BME280;30146;52.268;20.944;2023-08-12T00:23:39;100975.46;;;14.79;54.75
44441;BME280;30146;52.268;20.944;2023-08-12T00:26:09;100977.74;;;14.77;54.92
44441;BME280;30146;52.268;20.944;2023-08-12T00:28:38;100973.84;;;14.73;54.92
44441;BME280;30146;52.268;20.944;2023-08-12T00:31:08;100976.64;;;14.71;55.05
44441;BME280;30146;52.268;20.944;2023-08-12T00:33:38;100976.86;;;14.68;55.07
44441;BME280;30146;52.268;20.944;2023-08-12T00:36:07;100975.38;;;14.64;55.07
44441;BME280;30146;52.268;20.944;2023-08-12T00:38:36;100976.63;;;14.61;55.28
44441;BME280;30146;52.268;20.944;2023-08-12T00:41:06;100976.31;;;14.58;55.45
44441;BME280;30146;52.268;20.944;2023-08-12T00:43:35;100974.60;;;14.56;55.53
44441;BME280;30146;52.268;20.944;2023-08-12T00:46:05;100976.86;;;14.55;55.66
44441;BME280;30146;52.268;20.944;2023-08-12T00:48:34;100977.90;;;14.54;55.76
44441;BME280;30146;52.268;20.944;2023-08-12T00:51:04;100975.20;;;14.51;55.72
44441;BME280;30146;52.268;20.944;2023-08-12T00:53:35;100972.34;;;14.47;55.81
44441;BME280;30146;52.268;20.944;2023-08-12T00:56:05;100971.33;;;14.46;56.01
44441;BME280;30146;52.268;20.944;2023-08-12T00:58:35;100970.64;;;14.45;56.04
44441;BME280;30146;52.268;20.944;2023-08-12T01:01:04;100968.95;;;14.43;56.15
44441;BME280;30146;52.268;20.944;2023-08-12T01:03:33;100971.52;;;14.43;56.18
44441;BME280;30146;52.268;20.944;2023-08-12T01:06:04;100969.13;;;14.42;56.33
44441;BME280;30146;52.268;20.944;2023-08-12T01:08:33;100965.89;;;14.40;56.26
44441;BME280;30146;52.268;20.944;2023-08-12T01:11:06;100964.40;;;14.37;56.24
44441;BME280;30146;52.268;20.944;2023-08-12T01:13:39;100963.56;;;14.35;56.25
44441;BME280;30146;52.268;20.944;2023-08-12T01:16:13;100966.52;;;14.32;56.34
44441;BME280;30146;52.268;20.944;2023-08-12T01:18:44;100968.83;;;14.30;56.23
44441;BME280;30146;52.268;20.944;2023-08-12T01:21:15;100968.19;;;14.25;56.35
44441;BME280;30146;52.268;20.944;2023-08-12T01:23:45;100966.33;;;14.22;56.34
44441;BME280;30146;52.268;20.944;2023-08-12T01:26:15;100967.23;;;14.19;56.37
44441;BME280;30146;52.268;20.944;2023-08-12T01:28:44;100965.55;;;14.18;56.50
44441;BME280;30146;52.268;20.944;2023-08-12T01:31:15;100962.29;;;14.17;56.68
44441;BME280;30146;52.268;20.944;2023-08-12T01:33:52;100964.86;;;14.17;56.71
44441;BME280;30146;52.268;20.944;2023-08-12T01:36:25;100963.49;;;14.17;56.84
44441;BME280;30146;52.268;20.944;2023-08-12T01:38:55;100962.30;;;14.15;56.82
44441;BME280;30146;52.268;20.944;2023-08-12T01:41:25;100967.14;;;14.14;56.70
44441;BME280;30146;52.268;20.944;2023-08-12T01:43:55;100971.10;;;14.14;56.76
44441;BME280;30146;52.268;20.944;2023-08-12T01:46:25;100969.58;;;14.13;56.80
44441;BME280;30146;52.268;20.944;2023-08-12T01:48:54;100969.58;;;14.12;56.83
44441;BME280;30146;52.268;20.944;2023-08-12T01:51:24;100968.71;;;14.12;56.94
44441;BME280;30146;52.268;20.944;2023-08-12T01:53:53;100967.55;;;14.10;56.93
44441;BME280;30146;52.268;20.944;2023-08-12T01:56:23;100969.08;;;14.11;56.91
44441;BME280;30146;52.268;20.944;2023-08-12T01:58:52;100963.95;;;14.09;56.98
44441;BME280;30146;52.268;20.944;2023-08-12T02:01:22;100967.56;;;14.09;56.97
44441;BME280;30146;52.268;20.944;2023-08-12T02:03:51;100966.89;;;14.07;57.07
44441;BME280;30146;52.268;20.944;2023-08-12T02:06:21;100967.77;;;14.06;56.99
44441;BME280;30146;52.268;20.944;2023-08-12T02:08:51;100968.30;;;14.05;57.11
44441;BME280;30146;52.268;20.944;2023-08-12T02:11:20;100968.15;;;14.03;57.04
44441;BME280;30146;52.268;20.944;2023-08-12T02:13:49;100971.29;;;14.01;57.09
44441;BME280;30146;52.268;20.944;2023-08-12T02:16:19;100969.41;;;14.00;57.19
44441;BME280;30146;52.268;20.944;2023-08-12T02:18:48;100966.34;;;13.98;57.26
44441;BME280;30146;52.268;20.944;2023-08-12T02:21:17;100961.38;;;13.96;57.18
44441;BME280;30146;52.268;20.944;2023-08-12T02:23:47;100965.86;;;13.95;57.18
44441;BME280;30146;52.268;20.944;2023-08-12T02:26:17;100961.75;;;13.93;57.32
44441;BME280;30146;52.268;20.944;2023-08-12T02:28:48;100966.59;;;13.93;57.41
44441;BME280;30146;52.268;20.944;2023-08-12T02:31:17;100965.06;;;13.90;57.40
44441;BME280;30146;52.268;20.944;2023-08-12T02:33:48;100967.83;;;13.89;57.36
44441;BME280;30146;52.268;20.944;2023-08-12T02:36:18;100967.67;;;13.87;57.50
44441;BME280;30146;52.268;20.944;2023-08-12T02:38:47;100966.84;;;13.86;57.51
44441;BME280;30146;52.268;20.944;2023-08-12T02:41:17;100965.33;;;13.84;57.44
44441;BME280;30146;52.268;20.944;2023-08-12T02:43:46;100968.96;;;13.81;57.37
44441;BME280;30146;52.268;20.944;2023-08-12T02:46:16;100967.27;;;13.79;57.31
44441;BME280;30146;52.268;20.944;2023-08-12T02:48:46;100971.42;;;13.76;57.29
44441;BME280;30146;52.268;20.944;2023-08-12T02:51:16;100970.96;;;13.73;57.29
44441;BME280;30146;52.268;20.944;2023-08-12T02:53:45;100974.43;;;13.69;57.47
44441;BME280;30146;52.268;20.944;2023-08-12T02:56:15;100973.09;;;13.66;57.41
44441;BME280;30146;52.268;20.944;2023-08-12T02:58:44;100979.98;;;13.64;57.41
44441;BME280;30146;52.268;20.944;2023-08-12T03:01:15;100981.90;;;13.62;57.52
44441;BME280;30146;52.268;20.944;2023-08-12T03:03:45;100983.64;;;13.60;57.56
44441;BME280;30146;52.268;20.944;2023-08-12T03:06:14;100981.43;;;13.59;57.61
44441;BME280;30146;52.268;20.944;2023-08-12T03:08:43;100984.86;;;13.59;57.71
44441;BME280;30146;52.268;20.944;2023-08-12T03:11:13;100986.95;;;13.57;57.69
44441;BME280;30146;52.268;20.944;2023-08-12T03:13:43;100986.29;;;13.55;57.65
44441;BME280;30146;52.268;20.944;2023-08-12T03:16:13;100990.25;;;13.53;57.73
44441;BME280;30146;52.268;20.944;2023-08-12T03:18:44;100991.32;;;13.50;57.74
44441;BME280;30146;52.268;20.944;2023-08-12T03:21:13;100993.23;;;13.47;57.78
44441;BME280;30146;52.268;20.944;2023-08-12T03:23:43;100994.12;;;13.45;57.80
44441;BME280;30146;52.268;20.944;2023-08-12T03:26:13;100994.17;;;13.41;57.69
44441;BME280;30146;52.268;20.944;2023-08-12T03:28:43;101001.92;;;13.39;58.00
44441;BME280;30146;52.268;20.944;2023-08-12T03:31:14;101003.46;;;13.39;58.14
44441;BME280;30146;52.268;20.944;2023-08-12T03:33:44;101005.19;;;13.38;58.33
44441;BME280;30146;52.268;20.944;2023-08-12T03:36:14;101004.15;;;13.39;58.40
44441;BME280;30146;52.268;20.944;2023-08-12T03:38:43;101004.66;;;13.39;58.39
44441;BME280;30146;52.268;20.944;2023-08-12T03:41:16;101006.54;;;13.41;58.46
44441;BME280;30146;52.268;20.944;2023-08-12T03:43:46;101007.23;;;13.40;58.57
44441;BME280;30146;52.268;20.944;2023-08-12T03:46:16;101005.68;;;13.41;58.70
44441;BME280;30146;52.268;20.944;2023-08-12T03:48:46;101005.65;;;13.42;58.76
44441;BME280;30146;52.268;20.944;2023-08-12T03:51:16;101005.13;;;13.44;58.78
44441;BME280;30146;52.268;20.944;2023-08-12T03:53:46;101002.35;;;13.46;58.88
44441;BME280;30146;52.268;20.944;2023-08-12T03:56:15;101005.58;;;13.49;58.97
44441;BME280;30146;52.268;20.944;2023-08-12T03:58:44;101006.91;;;13.53;58.91
44441;BME280;30146;52.268;20.944;2023-08-12T04:01:14;101007.39;;;13.58;58.79
44441;BME280;30146;52.268;20.944;2023-08-12T04:03:43;101004.05;;;13.64;58.74
44441;BME280;30146;52.268;20.944;2023-08-12T04:06:13;101004.63;;;13.73;58.77
44441;BME280;30146;52.268;20.944;2023-08-12T04:08:42;101007.34;;;13.90;59.02
44441;BME280;30146;52.268;20.944;2023-08-12T04:11:12;101006.89;;;14.11;58.98
44441;BME280;30146;52.268;20.944;2023-08-12T04:13:41;101007.95;;;14.34;58.84
44441;BME280;30146;52.268;20.944;2023-08-12T04:16:12;101009.16;;;14.58;58.43
44441;BME280;30146;52.268;20.944;2023-08-12T04:18:42;101003.70;;;14.88;58.23
44441;BME280;30146;52.268;20.944;2023-08-12T04:21:12;101000.00;;;15.23;57.84
44441;BME280;30146;52.268;20.944;2023-08-12T04:23:41;101003.61;;;15.61;57.29
44441;BME280;30146;52.268;20.944;2023-08-12T04:26:11;101005.02;;;16.02;56.98
44441;BME280;30146;52.268;20.944;2023-08-12T04:28:41;100998.87;;;16.46;56.67
44441;BME280;30146;52.268;20.944;2023-08-12T04:31:11;100998.41;;;16.94;56.23
44441;BME280;30146;52.268;20.944;2023-08-12T04:33:41;100995.23;;;17.43;55.52
44441;BME280;30146;52.268;20.944;2023-08-12T04:36:11;100998.79;;;17.95;54.88
44441;BME280;30146;52.268;20.944;2023-08-12T04:38:40;101001.46;;;18.50;54.13
44441;BME280;30146;52.268;20.944;2023-08-12T04:41:10;100998.32;;;19.09;53.74
44441;BME280;30146;52.268;20.944;2023-08-12T04:43:39;101005.74;;;19.78;53.65
44441;BME280;30146;52.268;20.944;2023-08-12T04:46:09;101003.02;;;20.53;53.39
44441;BME280;30146;52.268;20.944;2023-08-12T04:48:38;100997.57;;;21.34;53.52
44441;BME280;30146;52.268;20.944;2023-08-12T04:51:08;100998.17;;;22.13;52.78
44441;BME280;30146;52.268;20.944;2023-08-12T04:53:38;100997.98;;;22.89;52.27
44441;BME280;30146;52.268;20.944;2023-08-12T04:56:07;100995.94;;;23.60;51.41
44441;BME280;30146;52.268;20.944;2023-08-12T04:58:36;100994.11;;;24.25;50.35
44441;BME280;30146;52.268;20.944;2023-08-12T05:01:07;100989.78;;;24.83;49.15
44441;BME280;30146;52.268;20.944;2023-08-12T05:03:36;100986.17;;;25.40;48.32
44441;BME280;30146;52.268;20.944;2023-08-12T05:06:07;100983.13;;;25.92;47.48
44441;BME280;30146;52.268;20.944;2023-08-12T05:08:37;100982.15;;;26.33;46.05
44441;BME280;30146;52.268;20.944;2023-08-12T05:11:06;100983.87;;;26.68;45.11
44441;BME280;30146;52.268;20.944;2023-08-12T05:13:36;100981.95;;;26.99;43.85
44441;BME280;30146;52.268;20.944;2023-08-12T05:16:05;100984.90;;;27.23;42.66
44441;BME280;30146;52.268;20.944;2023-08-12T05:18:35;100984.59;;;27.50;41.90
44441;BME280;30146;52.268;20.944;2023-08-12T05:21:05;100987.77;;;27.69;40.30
44441;BME280;30146;52.268;20.944;2023-08-12T05:23:34;100986.90;;;27.82;39.35
44441;BME280;30146;52.268;20.944;2023-08-12T05:26:04;100987.34;;;28.05;39.32
44441;BME280;30146;52.268;20.944;2023-08-12T05:28:50;100980.24;;;28.40;39.08
44441;BME280;30146;52.268;20.944;2023-08-12T05:31:20;100977.73;;;28.83;38.99
44441;BME280;30146;52.268;20.944;2023-08-12T05:33:50;100973.77;;;29.30;38.63
44441;BME280;30146;52.268;20.944;2023-08-12T05:36:20;100971.61;;;29.84;38.15
44441;BME280;30146;52.268;20.944;2023-08-12T05:38:49;100972.67;;;30.38;38.06
44441;BME280;30146;52.268;20.944;2023-08-12T05:41:19;100969.02;;;30.92;37.48
44441;BME280;30146;52.268;20.944;2023-08-12T05:43:48;100967.85;;;31.37;36.44
44441;BME280;30146;52.268;20.944;2023-08-12T05:46:17;100974.63;;;31.76;36.11
44441;BME280;30146;52.268;20.944;2023-08-12T05:48:47;100976.36;;;32.24;35.77
44441;BME280;30146;52.268;20.944;2023-08-12T05:51:16;100973.98;;;32.70;35.11
44441;BME280;30146;52.268;20.944;2023-08-12T05:53:45;100970.30;;;33.05;34.09
44441;BME280;30146;52.268;20.944;2023-08-12T05:56:15;100967.76;;;33.36;33.35
44441;BME280;30146;52.268;20.944;2023-08-12T05:58:44;100962.65;;;33.70;33.34
44441;BME280;30146;52.268;20.944;2023-08-12T06:01:14;100965.16;;;34.15;33.16
44441;BME280;30146;52.268;20.944;2023-08-12T06:03:43;100966.34;;;34.67;33.55
44441;BME280;30146;52.268;20.944;2023-08-12T06:06:12;100966.70;;;35.17;33.60
44441;BME280;30146;52.268;20.944;2023-08-12T06:08:42;100968.91;;;35.51;32.01
44441;BME280;30146;52.268;20.944;2023-08-12T06:11:11;100969.76;;;35.75;31.78
44441;BME280;30146;52.268;20.944;2023-08-12T06:13:41;100966.60;;;36.09;32.14
44441;BME280;30146;52.268;20.944;2023-08-12T06:16:10;100965.11;;;36.49;32.10
44441;BME280;30146;52.268;20.944;2023-08-12T06:18:39;100962.96;;;36.93;31.85
44441;BME280;30146;52.268;20.944;2023-08-12T06:21:09;100955.02;;;37.31;31.16
44441;BME280;30146;52.268;20.944;2023-08-12T06:23:38;100962.41;;;37.72;30.79
44441;BME280;30146;52.268;20.944;2023-08-12T06:26:07;100964.11;;;38.16;30.68
44441;BME280;30146;52.268;20.944;2023-08-12T06:28:37;100965.30;;;38.60;30.29
44441;BME280;30146;52.268;20.944;2023-08-12T06:31:06;100963.86;;;38.92;29.61
44441;BME280;30146;52.268;20.944;2023-08-12T06:33:36;100965.86;;;39.21;29.16
44441;BME280;30146;52.268;20.944;2023-08-12T06:36:06;100965.02;;;39.47;28.82
44441;BME280;30146;52.268;20.944;2023-08-12T06:38:35;100969.35;;;39.74;28.46
44441;BME280;30146;52.268;20.944;2023-08-12T06:41:05;100967.86;;;39.98;27.99
44441;BME280;30146;52.268;20.944;2023-08-12T06:43:34;100970.19;;;40.19;27.59
44441;BME280;30146;52.268;20.944;2023-08-12T06:46:04;100971.07;;;40.35;27.15
44441;BME280;30146;52.268;20.944;2023-08-12T06:48:33;100965.67;;;40.44;26.45
44441;BME280;30146;52.268;20.944;2023-08-12T06:51:03;100963.92;;;40.46;25.88
44441;BME280;30146;52.268;20.944;2023-08-12T06:53:38;100959.98;;;40.45;25.75
44441;BME280;30146;52.268;20.944;2023-08-12T06:56:07;100962.11;;;40.48;25.98
44441;BME280;30146;52.268;20.944;2023-08-12T06:58:37;100960.45;;;40.46;25.34
44441;BME280;30146;52.268;20.944;2023-08-12T07:01:06;100958.14;;;40.47;25.69
44441;BME280;30146;52.268;20.944;2023-08-12T07:03:36;100962.02;;;40.53;25.54
44441;BME280;30146;52.268;20.944;2023-08-12T07:06:05;100963.30;;;40.61;25.09
44441;BME280;30146;52.268;20.944;2023-08-12T07:08:34;100959.58;;;40.79;25.20
44441;BME280;30146;52.268;20.944;2023-08-12T07:11:04;100962.46;;;41.02;25.19
44441;BME280;30146;52.268;20.944;2023-08-12T07:13:33;100962.67;;;41.21;24.89
44441;BME280;30146;52.268;20.944;2023-08-12T07:16:03;100959.23;;;41.23;23.87
44441;BME280;30146;52.268;20.944;2023-08-12T07:18:32;100960.79;;;41.07;23.18
44441;BME280;30146;52.268;20.944;2023-08-12T07:21:02;100960.23;;;40.79;23.49
44441;BME280;30146;52.268;20.944;2023-08-12T07:23:31;100957.70;;;40.64;23.54
44441;BME280;30146;52.268;20.944;2023-08-12T07:26:01;100955.73;;;40.46;23.54
44441;BME280;30146;52.268;20.944;2023-08-12T07:28:30;100954.60;;;40.12;23.52
44441;BME280;30146;52.268;20.944;2023-08-12T07:31:01;100953.23;;;39.69;23.45
44441;BME280;30146;52.268;20.944;2023-08-12T07:33:31;100948.44;;;39.07;23.27
44441;BME280;30146;52.268;20.944;2023-08-12T07:36:01;100945.71;;;38.40;23.26
44441;BME280;30146;52.268;20.944;2023-08-12T07:38:30;100942.70;;;37.79;24.13
44441;BME280;30146;52.268;20.944;2023-08-12T07:41:04;100943.70;;;37.31;24.85
44441;BME280;30146;52.268;20.944;2023-08-12T07:43:34;100942.58;;;36.89;25.06
44441;BME280;30146;52.268;20.944;2023-08-12T07:46:03;100941.02;;;36.51;25.29
44441;BME280;30146;52.268;20.944;2023-08-12T07:48:37;100935.59;;;36.08;24.55
44441;BME280;30146;52.268;20.944;2023-08-12T07:51:07;100934.43;;;35.57;24.30
44441;BME280;30146;52.268;20.944;2023-08-12T07:53:36;100928.33;;;34.95;23.84
44441;BME280;30146;52.268;20.944;2023-08-12T07:56:06;100926.29;;;34.42;24.52
44441;BME280;30146;52.268;20.944;2023-08-12T07:58:36;100921.06;;;34.05;25.04
44441;BME280;30146;52.268;20.944;2023-08-12T08:01:07;100917.92;;;33.80;26.17
44441;BME280;30146;52.268;20.944;2023-08-12T08:03:37;100922.09;;;33.63;25.92
44441;BME280;30146;52.268;20.944;2023-08-12T08:06:07;100919.80;;;33.39;25.87
44441;BME280;30146;52.268;20.944;2023-08-12T08:08:37;100924.34;;;33.19;25.82
44441;BME280;30146;52.268;20.944;2023-08-12T08:11:07;100920.46;;;33.04;26.68
44441;BME280;30146;52.268;20.944;2023-08-12T08:13:37;100919.49;;;32.97;27.24
44441;BME280;30146;52.268;20.944;2023-08-12T08:16:06;100915.16;;;32.93;27.56
44441;BME280;30146;52.268;20.944;2023-08-12T08:18:36;100910.96;;;32.92;27.95
44441;BME280;30146;52.268;20.944;2023-08-12T08:21:05;100910.61;;;32.92;27.72
44441;BME280;30146;52.268;20.944;2023-08-12T08:23:35;100906.14;;;32.89;27.27
44441;BME280;30146;52.268;20.944;2023-08-12T08:26:04;100906.52;;;32.66;26.33
44441;BME280;30146;52.268;20.944;2023-08-12T08:28:34;100901.80;;;32.37;26.56
44441;BME280;30146;52.268;20.944;2023-08-12T08:31:06;100902.33;;;32.17;27.16
44441;BME280;30146;52.268;20.944;2023-08-12T08:33:35;100905.41;;;32.09;27.17
44441;BME280;30146;52.268;20.944;2023-08-12T08:36:05;100906.67;;;32.05;27.61
44441;BME280;30146;52.268;20.944;2023-08-12T08:38:34;100905.98;;;31.98;27.31
44441;BME280;30146;52.268;20.944;2023-08-12T08:41:04;100901.85;;;31.95;27.73
44441;BME280;30146;52.268;20.944;2023-08-12T08:43:35;100900.84;;;31.85;26.67
44441;BME280;30146;52.268;20.944;2023-08-12T08:46:06;100899.99;;;31.71;27.20
44441;BME280;30146;52.268;20.944;2023-08-12T08:48:36;100900.80;;;31.62;27.58
44441;BME280;30146;52.268;20.944;2023-08-12T08:51:06;100895.84;;;31.52;26.91
44441;BME280;30146;52.268;20.944;2023-08-12T08:53:37;100902.17;;;31.34;26.50
44441;BME280;30146;52.268;20.944;2023-08-12T08:56:07;100900.33;;;31.19;26.78
44441;BME280;30146;52.268;20.944;2023-08-12T08:58:43;100898.55;;;31.05;26.63
44441;BME280;30146;52.268;20.944;2023-08-12T09:01:12;100896.73;;;30.94;27.05
44441;BME280;30146;52.268;20.944;2023-08-12T09:03:43;100892.35;;;30.88;27.35
44441;BME280;30146;52.268;20.944;2023-08-12T09:06:12;100891.44;;;30.87;28.09
44441;BME280;30146;52.268;20.944;2023-08-12T09:08:43;100887.49;;;30.85;27.58
44441;BME280;30146;52.268;20.944;2023-08-12T09:11:14;100884.95;;;30.84;27.88
44441;BME280;30146;52.268;20.944;2023-08-12T09:13:45;100881.75;;;30.83;28.54
44441;BME280;30146;52.268;20.944;2023-08-12T09:16:14;100882.89;;;30.77;27.44
44441;BME280;30146;52.268;20.944;2023-08-12T09:18:44;100880.84;;;30.67;27.20
44441;BME280;30146;52.268;20.944;2023-08-12T09:21:15;100876.82;;;30.54;27.25
44441;BME280;30146;52.268;20.944;2023-08-12T09:23:44;100872.66;;;30.41;27.49
44441;BME280;30146;52.268;20.944;2023-08-12T09:26:15;100867.40;;;30.31;27.63
44441;BME280;30146;52.268;20.944;2023-08-12T09:28:44;100868.70;;;30.28;27.79
44441;BME280;30146;52.268;20.944;2023-08-12T09:31:22;100866.85;;;30.30;28.05
44441;BME280;30146;52.268;20.944;2023-08-12T09:33:53;100860.59;;;30.30;27.97
44441;BME280;30146;52.268;20.944;2023-08-12T09:36:23;100856.91;;;30.26;27.56
44441;BME280;30146;52.268;20.944;2023-08-12T09:38:52;100856.74;;;30.18;27.54
44441;BME280;30146;52.268;20.944;2023-08-12T09:41:23;100856.93;;;30.09;27.53
44441;BME280;30146;52.268;20.944;2023-08-12T09:43:53;100856.50;;;30.02;27.70
44441;BME280;30146;52.268;20.944;2023-08-12T09:46:23;100858.16;;;30.01;28.03
44441;BME280;30146;52.268;20.944;2023-08-12T09:48:53;100861.91;;;30.02;28.27
44441;BME280;30146;52.268;20.944;2023-08-12T09:51:22;100858.23;;;30.04;28.10
44441;BME280;30146;52.268;20.944;2023-08-12T09:53:52;100851.25;;;30.03;27.88
44441;BME280;30146;52.268;20.944;2023-08-12T09:56:22;100845.32;;;29.98;27.85
44441;BME280;30146;52.268;20.944;2023-08-12T09:58:52;100840.74;;;29.90;27.89
44441;BME280;30146;52.268;20.944;2023-08-12T10:01:21;100839.17;;;29.85;28.21
44441;BME280;30146;52.268;20.944;2023-08-12T10:03:51;100835.40;;;29.82;28.17
44441;BME280;30146;52.268;20.944;2023-08-12T10:06:21;100836.40;;;29.81;28.64
44441;BME280;30146;52.268;20.944;2023-08-12T10:08:51;100835.32;;;29.83;28.93
44441;BME280;30146;52.268;20.944;2023-08-12T10:11:20;100835.11;;;29.83;29.16
44441;BME280;30146;52.268;20.944;2023-08-12T10:13:50;100832.29;;;29.85;28.93
44441;BME280;30146;52.268;20.944;2023-08-12T10:16:20;100831.52;;;29.86;28.35
44441;BME280;30146;52.268;20.944;2023-08-12T10:18:49;100831.67;;;29.86;28.32
44441;BME280;30146;52.268;20.944;2023-08-12T10:21:20;100831.02;;;29.84;28.38
44441;BME280;30146;52.268;20.944;2023-08-12T10:23:50;100827.63;;;29.76;28.29
44441;BME280;30146;52.268;20.944;2023-08-12T10:26:19;100823.90;;;29.65;28.33
44441;BME280;30146;52.268;20.944;2023-08-12T10:28:50;100822.81;;;29.57;28.51
44441;BME280;30146;52.268;20.944;2023-08-12T10:31:20;100823.11;;;29.49;28.23
44441;BME280;30146;52.268;20.944;2023-08-12T10:33:49;100819.25;;;29.40;28.28
44441;BME280;30146;52.268;20.944;2023-08-12T10:36:19;100815.41;;;29.31;28.31
44441;BME280;30146;52.268;20.944;2023-08-12T10:38:50;100812.16;;;29.23;28.44
44441;BME280;30146;52.268;20.944;2023-08-12T10:41:20;100809.66;;;29.19;28.99
44441;BME280;30146;52.268;20.944;2023-08-12T10:43:50;100811.35;;;29.18;28.84
44441;BME280;30146;52.268;20.944;2023-08-12T10:46:26;100808.17;;;29.18;29.27
44441;BME280;30146;52.268;20.944;2023-08-12T10:48:58;100802.12;;;29.16;29.66
44441;BME280;30146;52.268;20.944;2023-08-12T10:51:43;100798.59;;;29.14;29.42
44441;BME280;30146;52.268;20.944;2023-08-12T10:54:17;100793.90;;;29.09;29.12
44441;BME280;30146;52.268;20.944;2023-08-12T10:57:05;100793.94;;;28.99;28.88
44441;BME280;30146;52.268;20.944;2023-08-12T10:59:52;100796.00;;;28.89;29.11
44441;BME280;30146;52.268;20.944;2023-08-12T11:02:25;100795.15;;;28.82;29.65
44441;BME280;30146;52.268;20.944;2023-08-12T11:04:56;100790.30;;;28.76;30.42
44441;BME280;30146;52.268;20.944;2023-08-12T11:07:37;100787.56;;;28.71;30.14
44441;BME280;30146;52.268;20.944;2023-08-12T11:10:09;100782.45;;;28.62;30.12
44441;BME280;30146;52.268;20.944;2023-08-12T11:12:39;100781.48;;;28.57;29.84
44441;BME280;30146;52.268;20.944;2023-08-12T11:15:09;100779.27;;;28.51;29.87
44441;BME280;30146;52.268;20.944;2023-08-12T11:17:39;100772.83;;;28.46;30.12
44441;BME280;30146;52.268;20.944;2023-08-12T11:20:10;100769.40;;;28.42;30.62
44441;BME280;30146;52.268;20.944;2023-08-12T11:22:40;100767.85;;;28.39;30.52
44441;BME280;30146;52.268;20.944;2023-08-12T11:25:10;100770.59;;;28.38;30.33
44441;BME280;30146;52.268;20.944;2023-08-12T11:27:41;100770.69;;;28.35;30.28
44441;BME280;30146;52.268;20.944;2023-08-12T11:30:12;100770.40;;;28.32;30.78
44441;BME280;30146;52.268;20.944;2023-08-12T11:32:43;100767.00;;;28.28;31.19
44441;BME280;30146;52.268;20.944;2023-08-12T11:35:14;100760.27;;;28.24;31.02
44441;BME280;30146;52.268;20.944;2023-08-12T11:37:44;100763.36;;;28.20;30.70
44441;BME280;30146;52.268;20.944;2023-08-12T11:40:15;100761.52;;;28.14;31.21
44441;BME280;30146;52.268;20.944;2023-08-12T11:42:45;100767.05;;;28.09;31.40
44441;BME280;30146;52.268;20.944;2023-08-12T11:45:15;100763.51;;;28.02;31.24
44441;BME280;30146;52.268;20.944;2023-08-12T11:47:45;100758.98;;;27.95;31.15
44441;BME280;30146;52.268;20.944;2023-08-12T11:50:22;100756.17;;;27.90;31.68
44441;BME280;30146;52.268;20.944;2023-08-12T11:52:52;100756.23;;;27.84;31.64
44441;BME280;30146;52.268;20.944;2023-08-12T11:55:21;100755.62;;;27.80;31.49
44441;BME280;30146;52.268;20.944;2023-08-12T11:57:51;100754.66;;;27.77;31.34
44441;BME280;30146;52.268;20.944;2023-08-12T12:00:21;100751.04;;;27.74;31.49
44441;BME280;30146;52.268;20.944;2023-08-12T12:02:52;100742.94;;;27.70;31.56
44441;BME280;30146;52.268;20.944;2023-08-12T12:05:23;100739.04;;;27.65;31.43
44441;BME280;30146;52.268;20.944;2023-08-12T12:07:53;100738.71;;;27.60;31.70
44441;BME280;30146;52.268;20.944;2023-08-12T12:10:26;100736.25;;;27.55;31.74
44441;BME280;30146;52.268;20.944;2023-08-12T12:13:01;100732.78;;;27.50;31.75
44441;BME280;30146;52.268;20.944;2023-08-12T12:15:31;100729.59;;;27.46;31.67
44441;BME280;30146;52.268;20.944;2023-08-12T12:18:00;100731.55;;;27.41;31.78
44441;BME280;30146;52.268;20.944;2023-08-12T12:20:29;100728.09;;;27.35;32.04
44441;BME280;30146;52.268;20.944;2023-08-12T12:23:04;100720.48;;;27.29;32.13
44441;BME280;30146;52.268;20.944;2023-08-12T12:25:34;100721.27;;;27.25;31.99
44441;BME280;30146;52.268;20.944;2023-08-12T12:28:04;100720.61;;;27.24;32.02
44441;BME280;30146;52.268;20.944;2023-08-12T12:30:34;100723.29;;;27.21;31.67
44441;BME280;30146;52.268;20.944;2023-08-12T12:33:03;100721.47;;;27.20;31.66
44441;BME280;30146;52.268;20.944;2023-08-12T12:35:33;100725.89;;;27.19;31.64
44441;BME280;30146;52.268;20.944;2023-08-12T12:38:22;100719.81;;;27.16;31.25
44441;BME280;30146;52.268;20.944;2023-08-12T12:40:52;100718.23;;;27.12;31.26
44441;BME280;30146;52.268;20.944;2023-08-12T12:43:21;100711.52;;;27.07;31.34
44441;BME280;30146;52.268;20.944;2023-08-12T12:45:50;100710.98;;;27.05;31.68
44441;BME280;30146;52.268;20.944;2023-08-12T12:48:20;100710.41;;;27.03;31.97
44441;BME280;30146;52.268;20.944;2023-08-12T12:50:49;100710.98;;;27.02;31.78
44441;BME280;30146;52.268;20.944;2023-08-12T12:53:18;100706.13;;;27.02;31.93
44441;BME280;30146;52.268;20.944;2023-08-12T12:55:48;100701.04;;;27.02;32.38